Rechercher aéroport 
image banner adimage banner adimage banner ad
image banner ad

CN64 - Desert Center

Situé à Desert Center, Canada

ICAO - CN64, IATA -

Données fournies par Airmate  

Information générale

Coordonnées: N33°44'52" W115°19'31"
Élévation : 559 feet MSL.
Variation magnétique : 13° East
Voir autres Aéroports à California

Données opérationnelles

Special qualification required
Heure actuelle UTC:
Heure actuelle locale:
Météo à : KBLH - Blythe ( 58 km )
METAR: KBLH 291552Z AUTO 00000KT 10SM CLR 37/13 A2982 RMK AO2 SLP091 T03720128
TAF: KBLH 291124Z 2912/3012 35005KT P6SM SCT250 FM291500 14006KT P6SM FEW150 BKN250 FM300600 16012KT P6SM VCSH SCT080 SCT150 BKN250 FM301000 17015KT P6SM FEW100 SCT150 BKN250
Voir NOTAMs / SUP AIP / TFR affectant cet aéroport [VIEW]
Fréquences de communication: [VIEW]

Pistes:

Identifiant RWYQFULongueur (ft)Largeur (ft)SurfaceLDA (ft)
05420050ASPH
23420050ASPH

Coordonnées de l'aéroport

Adresse: Desert Center Canada

Vue satellite de CN64